New Miami, Ohio
Current Conditions -  °F | °C
As of 4:53 PM on Thursday 27 Nov 2014 (Local Time) from KHAO Reporting Station
Overcast Overcast  
Wind Chill: 24°   Ceiling: 3300
Heat Index: 32°   Visibility: 10mi
Dew Point: 24°   Wind: 9mph
Humidity: 73%   Direction: 270°W
Pressure: 30.33"   Gusts: NA
Location:  39.4247°N, 84.5012°W
Report Text: KHAO 272153Z AUTO 27008KT 10SM SCT027 OVC033 00/M04 A3033 RMK AO2 SLP279 T00001044
Loading
Personal Weather Stations






























Interactive Weather Map New forecast layout! Learn more

10-Day Weather Forecast

Advertisements
Track Severe Weather on mobile